createdAt,value
2022-08-01T00:01:26.515Z,100197.09
2022-08-01T00:03:55.138Z,100200.66
2022-08-01T00:06:23.571Z,100199.81
2022-08-01T00:08:52.013Z,100197.91
2022-08-01T00:11:21.921Z,100194.34
2022-08-01T00:13:50.562Z,100190.78
2022-08-01T00:16:19.054Z,100189.38
2022-08-01T00:18:47.460Z,100187.13
2022-08-01T00:21:16.076Z,100187.41
2022-08-01T00:23:44.716Z,100184.06
2022-08-01T00:26:13.276Z,100176.34
2022-08-01T00:28:43.395Z,100177.72
2022-08-01T00:31:11.846Z,100182.59
2022-08-01T00:33:40.299Z,100183.94
2022-08-01T00:36:09.065Z,100186.94
2022-08-01T00:38:37.548Z,100188.25
2022-08-01T00:41:06.015Z,100185.78
2022-08-01T00:43:34.556Z,100182.44
2022-08-01T00:46:04.437Z,100187.09
2022-08-01T00:48:32.856Z,100189.50
2022-08-01T00:51:01.378Z,100185.38
2022-08-01T00:53:38.743Z,100185.63
2022-08-01T00:56:18.593Z,100188.84
2022-08-01T00:58:47.102Z,100188.28
2022-08-01T01:01:21.873Z,100189.34
2022-08-01T01:03:59.898Z,100188.19
2022-08-01T01:06:38.040Z,100188.69
2022-08-01T01:09:20.710Z,100190.84
2022-08-01T01:11:59.912Z,100187.78
2022-08-01T01:14:35.980Z,100185.56
2022-08-01T01:17:10.128Z,100183.06
2022-08-01T01:19:44.372Z,100185.22
2022-08-01T01:22:28.242Z,100179.41
2022-08-01T01:25:11.983Z,100176.06
2022-08-01T01:27:51.914Z,100178.47
2022-08-01T01:30:23.897Z,100185.03
2022-08-01T01:32:56.352Z,100186.34
2022-08-01T01:35:28.347Z,100183.63
2022-08-01T01:38:00.999Z,100185.75
2022-08-01T01:40:31.416Z,100178.63
2022-08-01T01:43:00.704Z,100187.34
2022-08-01T01:45:31.793Z,100181.28
2022-08-01T01:48:01.505Z,100182.63
2022-08-01T01:50:31.014Z,100181.78
2022-08-01T01:53:01.625Z,100185.00
2022-08-01T01:55:31.032Z,100189.66
2022-08-01T01:58:01.572Z,100180.03
2022-08-01T02:00:34.109Z,100183.03
2022-08-01T02:03:06.879Z,100186.81
2022-08-01T02:05:37.908Z,100180.19
2022-08-01T02:08:07.975Z,100191.13
2022-08-01T02:10:38.522Z,100187.00
2022-08-01T02:13:08.908Z,100187.81
2022-08-01T02:16:00.420Z,100191.63
2022-08-01T02:18:28.233Z,100187.50
2022-08-01T02:20:58.416Z,100189.41
2022-08-01T02:23:32.789Z,100178.94
2022-08-01T02:26:09.710Z,100181.91
2022-08-01T02:28:45.814Z,100190.59
2022-08-01T02:31:20.246Z,100181.97
2022-08-01T02:33:54.329Z,100180.56
2022-08-01T02:36:30.961Z,100180.47
2022-08-01T02:39:04.572Z,100185.13
2022-08-01T02:41:35.786Z,100192.38
2022-08-01T02:44:07.475Z,100192.13
2022-08-01T02:46:41.285Z,100191.97
2022-08-01T02:49:13.370Z,100182.72
2022-08-01T02:51:43.345Z,100187.72
2022-08-01T02:54:13.123Z,100188.41
2022-08-01T02:56:43.881Z,100185.13
2022-08-01T02:59:16.370Z,100182.13
2022-08-01T03:01:55.075Z,100189.03
2022-08-01T03:04:25.082Z,100184.63
2022-08-01T03:06:55.295Z,100191.00
2022-08-01T03:09:25.349Z,100191.34
2022-08-01T03:11:55.139Z,100191.94
2022-08-01T03:14:26.092Z,100191.47
2022-08-01T03:16:57.791Z,100193.19
2022-08-01T03:19:29.776Z,100190.78
2022-08-01T03:22:00.637Z,100187.56
2022-08-01T03:24:30.741Z,100195.03
2022-08-01T03:27:00.264Z,100189.88
2022-08-01T03:29:31.532Z,100194.03
2022-08-01T03:32:03.720Z,100188.91
2022-08-01T03:34:32.618Z,100191.31
2022-08-01T03:37:07.635Z,100184.25
2022-08-01T03:39:42.313Z,100187.34
2022-08-01T03:42:16.679Z,100181.63
2022-08-01T03:44:52.091Z,100180.88
2022-08-01T03:47:26.851Z,100173.25
2022-08-01T03:49:57.299Z,100178.13
2022-08-01T03:52:28.047Z,100177.66
2022-08-01T03:54:58.605Z,100174.16
2022-08-01T03:57:36.313Z,100175.34
2022-08-01T04:00:10.107Z,100171.63
2022-08-01T04:02:43.964Z,100177.16
2022-08-01T04:05:13.103Z,100175.59
2022-08-01T04:07:44.115Z,100178.66
2022-08-01T04:10:13.351Z,100170.53
2022-08-01T04:12:41.972Z,100175.50
2022-08-01T04:15:10.883Z,100176.91
2022-08-01T04:17:39.374Z,100173.66
2022-08-01T04:20:10.410Z,100169.75
2022-08-01T04:22:39.960Z,100178.28
2022-08-01T04:25:14.835Z,100181.03
2022-08-01T04:27:50.008Z,100177.66
2022-08-01T04:30:22.510Z,100178.56
2022-08-01T04:32:52.059Z,100179.31
2022-08-01T04:36:02.814Z,100184.03
2022-08-01T04:38:15.364Z,100176.97
2022-08-01T04:40:44.914Z,100177.56
2022-08-01T04:43:15.142Z,100178.38
2022-08-01T04:45:45.803Z,100183.59
2022-08-01T04:48:15.708Z,100174.88
2022-08-01T04:50:45.638Z,100180.97
2022-08-01T04:53:18.940Z,100184.75
2022-08-01T04:55:48.184Z,100178.78
2022-08-01T04:58:18.729Z,100188.41
2022-08-01T05:00:48.273Z,100179.19
2022-08-01T05:03:16.826Z,100182.81
2022-08-01T05:05:47.365Z,100193.84
2022-08-01T05:08:15.828Z,100189.00
2022-08-01T05:10:44.794Z,100194.22
2022-08-01T05:13:13.229Z,100188.81
2022-08-01T05:15:42.205Z,100188.09
2022-08-01T05:18:10.753Z,100192.28
2022-08-01T05:20:39.383Z,100191.84
2022-08-01T05:23:15.829Z,100183.94
2022-08-01T05:25:59.051Z,100182.56
2022-08-01T05:28:27.618Z,100190.50
2022-08-01T05:30:57.672Z,100182.59
2022-08-01T05:33:26.069Z,100184.56
2022-08-01T05:35:54.569Z,100181.38
2022-08-01T05:38:24.532Z,100178.38
2022-08-01T05:40:53.123Z,100182.31
2022-08-01T05:43:24.415Z,100173.03
2022-08-01T05:45:56.783Z,100168.19
2022-08-01T05:48:25.280Z,100173.22
2022-08-01T05:50:58.209Z,100174.91
2022-08-01T05:53:28.899Z,100175.44
2022-08-01T05:55:57.625Z,100173.84
2022-08-01T05:58:26.175Z,100167.06
2022-08-01T06:00:54.623Z,100175.34
2022-08-01T06:03:23.035Z,100172.69
2022-08-01T06:05:51.623Z,100171.91
2022-08-01T06:08:20.088Z,100173.06
2022-08-01T06:10:49.932Z,100171.72
2022-08-01T06:13:20.057Z,100176.16
2022-08-01T06:15:48.970Z,100168.28
2022-08-01T06:18:18.018Z,100175.47
2022-08-01T06:20:46.479Z,100174.38
2022-08-01T06:23:32.318Z,100172.22
2022-08-01T06:26:03.150Z,100175.25
2022-08-01T06:28:31.812Z,100172.53
2022-08-01T06:31:00.942Z,100175.34
2022-08-01T06:33:29.852Z,100175.91
2022-08-01T06:35:58.316Z,100180.88
2022-08-01T06:38:26.773Z,100180.63
2022-08-01T06:40:55.280Z,100177.88
2022-08-01T06:43:25.188Z,100186.19
2022-08-01T06:45:53.703Z,100179.59
2022-08-01T06:48:22.180Z,100180.72
2022-08-01T06:51:08.945Z,100173.91
2022-08-01T06:53:38.816Z,100179.69
2022-08-01T06:56:09.768Z,100182.44
2022-08-01T06:58:39.921Z,100181.63
2022-08-01T07:01:08.640Z,100184.13
2022-08-01T07:03:53.537Z,100184.47
2022-08-01T07:06:23.030Z,100183.91
2022-08-01T07:08:51.514Z,100183.97
2022-08-01T07:11:20.530Z,100180.16
2022-08-01T07:13:50.645Z,100185.69
2022-08-01T07:16:19.593Z,100196.69
2022-08-01T07:18:47.999Z,100189.53
2022-08-01T07:21:38.862Z,100197.53
2022-08-01T07:24:09.243Z,100188.75
2022-08-01T07:26:52.462Z,100188.47
2022-08-01T07:29:26.059Z,100178.84
2022-08-01T07:31:55.384Z,100176.38
2022-08-01T07:34:24.326Z,100183.81
2022-08-01T07:36:53.519Z,100178.03
2022-08-01T07:39:22.311Z,100181.63
2022-08-01T07:42:06.425Z,100171.47
2022-08-01T07:44:38.994Z,100173.94
2022-08-01T07:47:08.811Z,100170.34
2022-08-01T07:49:40.297Z,100173.09
2022-08-01T07:52:10.101Z,100172.53
2022-08-01T07:54:39.025Z,100167.81
2022-08-01T07:57:08.263Z,100173.63
2022-08-01T07:59:38.168Z,100163.94
2022-08-01T08:02:07.422Z,100171.38
2022-08-01T08:04:36.298Z,100171.91
2022-08-01T08:07:05.196Z,100171.09
2022-08-01T08:09:37.248Z,100168.31
2022-08-01T08:12:08.460Z,100176.03
2022-08-01T08:14:39.062Z,100169.97
2022-08-01T08:17:08.136Z,100170.22
2022-08-01T08:19:39.270Z,100172.16
2022-08-01T08:22:09.812Z,100171.06
2022-08-01T08:24:46.141Z,100165.25
2022-08-01T08:27:15.628Z,100163.53
2022-08-01T08:29:45.581Z,100166.03
2022-08-01T08:32:14.497Z,100169.81
2022-08-01T08:34:43.411Z,100167.31
2022-08-01T08:37:12.242Z,100160.13
2022-08-01T08:39:41.369Z,100158.69
2022-08-01T08:42:11.806Z,100158.66
2022-08-01T08:44:43.401Z,100156.41
2022-08-01T08:47:19.883Z,100159.13
2022-08-01T08:49:50.677Z,100146.94
2022-08-01T08:52:21.884Z,100145.78
2022-08-01T08:54:52.057Z,100145.50
2022-08-01T08:57:22.586Z,100142.16
2022-08-01T08:59:53.196Z,100139.94
2022-08-01T09:02:23.337Z,100140.16
2022-08-01T09:04:53.143Z,100146.47
2022-08-01T09:07:21.719Z,100142.50
2022-08-01T09:09:51.587Z,100141.06
2022-08-01T09:12:21.520Z,100131.81
2022-08-01T09:14:51.395Z,100131.38
2022-08-01T09:17:20.106Z,100131.97
2022-08-01T09:19:54.460Z,100131.63
2022-08-01T09:22:25.925Z,100124.63
2022-08-01T09:25:03.135Z,100127.03
2022-08-01T09:27:32.511Z,100127.19
2022-08-01T09:30:11.866Z,100123.94
2022-08-01T09:32:55.730Z,100117.25
2022-08-01T09:35:31.994Z,100114.59
2022-08-01T09:38:16.741Z,100119.94
2022-08-01T09:40:58.949Z,100116.91
2022-08-01T09:43:29.091Z,100116.13
2022-08-01T09:45:58.412Z,100121.25
2022-08-01T09:48:29.907Z,100115.97
2022-08-01T09:51:07.402Z,100120.59
2022-08-01T09:53:52.178Z,100110.13
2022-08-01T09:56:23.755Z,100120.00
2022-08-01T09:58:59.419Z,100105.25
2022-08-01T10:01:36.535Z,100108.16
2022-08-01T10:04:10.784Z,100104.94
2022-08-01T10:06:43.820Z,100100.50
2022-08-01T10:09:14.818Z,100107.59
2022-08-01T10:11:45.301Z,100107.63
2022-08-01T10:14:18.119Z,100116.28
2022-08-01T10:16:53.531Z,100107.94
2022-08-01T10:19:25.138Z,100109.63
2022-08-01T10:22:00.435Z,100108.53
2022-08-01T10:24:33.429Z,100111.00
2022-08-01T10:27:08.396Z,100109.81
2022-08-01T10:29:59.170Z,100103.00
2022-08-01T10:32:33.975Z,100101.19
2022-08-01T10:35:06.233Z,100104.66
2022-08-01T10:37:51.956Z,100108.06
2022-08-01T10:40:30.798Z,100095.75
2022-08-01T10:43:00.996Z,100095.97
2022-08-01T10:45:30.575Z,100098.31
2022-08-01T10:48:06.793Z,100094.41
2022-08-01T10:50:40.594Z,100087.22
2022-08-01T10:53:23.276Z,100084.34
2022-08-01T10:56:03.205Z,100083.19
2022-08-01T10:58:42.752Z,100091.22
2022-08-01T11:01:19.665Z,100080.75
2022-08-01T11:04:01.247Z,100077.44
2022-08-01T11:06:41.899Z,100077.22
2022-08-01T11:09:36.340Z,100087.59
2022-08-01T11:12:13.124Z,100081.06
2022-08-01T11:15:29.576Z,100072.72
2022-08-01T11:18:02.563Z,100071.41
2022-08-01T11:20:34.013Z,100063.91
2022-08-01T11:23:36.338Z,100067.19
2022-08-01T11:26:15.023Z,100057.16
2022-08-01T11:29:10.822Z,100059.59
2022-08-01T11:31:37.843Z,100053.84
2022-08-01T11:34:07.401Z,100048.25
2022-08-01T11:36:58.136Z,100054.88
2022-08-01T11:39:24.543Z,100053.00
2022-08-01T11:41:55.774Z,100051.66
2022-08-01T11:44:30.125Z,100058.81
2022-08-01T11:47:09.317Z,100052.47
2022-08-01T11:50:00.735Z,100047.03
2022-08-01T11:52:31.010Z,100046.66
2022-08-01T11:55:10.059Z,100047.06
2022-08-01T11:57:41.145Z,100038.97
2022-08-01T12:00:15.403Z,100041.56
2022-08-01T12:02:46.422Z,100042.53
2022-08-01T12:05:17.746Z,100033.09
2022-08-01T12:07:47.653Z,100028.75
2022-08-01T12:10:17.877Z,100035.91
2022-08-01T12:12:49.587Z,100035.09
2022-08-01T12:15:19.272Z,100036.09
2022-08-01T12:17:58.933Z,100047.91
2022-08-01T12:20:32.023Z,100053.91
2022-08-01T12:23:02.272Z,100042.91
2022-08-01T12:25:31.315Z,100041.16
2022-08-01T12:28:03.940Z,100045.50
2022-08-01T12:30:36.588Z,100046.19
2022-08-01T12:33:07.380Z,100039.06
2022-08-01T12:35:37.621Z,100036.63
2022-08-01T12:38:10.467Z,100042.53
2022-08-01T12:40:45.619Z,100033.69
2022-08-01T12:43:27.960Z,100029.88
2022-08-01T12:46:00.556Z,100034.66
2022-08-01T12:48:30.199Z,100027.78
2022-08-01T12:51:02.299Z,100026.66
2022-08-01T12:53:40.358Z,100030.84
2022-08-01T12:56:12.183Z,100031.63
2022-08-01T12:58:42.375Z,100024.50
2022-08-01T13:01:13.193Z,100028.06
2022-08-01T13:03:42.427Z,100016.41
2022-08-01T13:06:16.586Z,100014.91
2022-08-01T13:08:47.163Z,100007.97
2022-08-01T13:11:18.201Z,100005.09
2022-08-01T13:13:49.924Z,100004.00
2022-08-01T13:16:30.531Z,100001.38
2022-08-01T13:19:07.967Z,99995.44
2022-08-01T13:21:54.394Z,100001.44
2022-08-01T13:24:28.198Z,100001.81
2022-08-01T13:27:00.660Z,99993.66
2022-08-01T13:29:35.130Z,99992.03
2022-08-01T13:32:29.174Z,99992.69
2022-08-01T13:35:04.423Z,99997.19
2022-08-01T13:37:33.111Z,99994.09
2022-08-01T13:40:01.707Z,99997.88
2022-08-01T13:42:33.005Z,100004.81
2022-08-01T13:45:03.780Z,100007.84
2022-08-01T13:47:32.930Z,100001.25
2022-08-01T13:50:04.088Z,100006.84
2022-08-01T13:52:33.225Z,99997.38
2022-08-01T13:55:02.292Z,100009.41
2022-08-01T13:57:37.281Z,100016.00
2022-08-01T14:00:10.888Z,100009.31
2022-08-01T14:02:42.341Z,100011.91
2022-08-01T14:05:11.147Z,100009.19
2022-08-01T14:07:39.629Z,100018.22
2022-08-01T14:10:19.435Z,100020.16
2022-08-01T14:12:49.738Z,100012.75
2022-08-01T14:15:39.272Z,100008.38
2022-08-01T14:18:10.543Z,100012.31
2022-08-01T14:20:40.699Z,100007.94
2022-08-01T14:23:09.502Z,100002.16
2022-08-01T14:26:03.261Z,100012.19
2022-08-01T14:28:29.286Z,100003.06
2022-08-01T14:31:00.316Z,100002.78
2022-08-01T14:33:28.964Z,99994.25
2022-08-01T14:36:05.267Z,100001.94
2022-08-01T14:38:46.869Z,99996.50
2022-08-01T14:41:15.708Z,99997.41
2022-08-01T14:43:44.198Z,100004.25
2022-08-01T14:46:14.523Z,100005.69
2022-08-01T14:48:43.373Z,99990.44
2022-08-01T14:51:11.959Z,99999.25
2022-08-01T14:53:47.132Z,99993.31
2022-08-01T14:56:19.749Z,99992.22
2022-08-01T14:58:48.613Z,100000.25
2022-08-01T15:01:19.215Z,99988.66
2022-08-01T15:03:49.117Z,99992.47
2022-08-01T15:06:17.583Z,99988.03
2022-08-01T15:08:46.376Z,99989.47
2022-08-01T15:11:14.902Z,99983.94
2022-08-01T15:13:43.461Z,99985.63
2022-08-01T15:16:12.384Z,99988.06
2022-08-01T15:18:43.103Z,99989.81
2022-08-01T15:21:17.172Z,99986.22
2022-08-01T15:23:45.698Z,99991.88
2022-08-01T15:26:14.853Z,99991.03
2022-08-01T15:28:43.428Z,99993.88
2022-08-01T15:31:14.235Z,99989.41
2022-08-01T15:33:44.315Z,99983.59
2022-08-01T15:36:15.438Z,99978.38
2022-08-01T15:38:44.003Z,99973.72
2022-08-01T15:41:12.517Z,99973.19
2022-08-01T15:43:44.128Z,99977.66
2022-08-01T15:46:13.354Z,99974.88
2022-08-01T15:48:43.624Z,99971.00
2022-08-01T15:51:12.311Z,99967.72
2022-08-01T15:53:41.525Z,99975.44
2022-08-01T15:56:10.157Z,99975.16
2022-08-01T15:58:38.615Z,99974.66
2022-08-01T16:01:07.075Z,99973.59
2022-08-01T16:03:35.580Z,99973.59
2022-08-01T16:06:05.699Z,99972.78
2022-08-01T16:08:34.263Z,99971.09
2022-08-01T16:11:03.312Z,99974.75
2022-08-01T16:13:31.776Z,99982.78
2022-08-01T16:16:00.300Z,99975.63
2022-08-01T16:18:28.788Z,99975.91
2022-08-01T16:20:58.878Z,99973.47
2022-08-01T16:23:29.066Z,99979.00
2022-08-01T16:25:57.564Z,99979.34
2022-08-01T16:28:27.738Z,99972.72
2022-08-01T16:31:16.693Z,99978.50
2022-08-01T16:33:54.158Z,99980.47
2022-08-01T16:36:25.247Z,99981.59
2022-08-01T16:38:55.116Z,99979.94
2022-08-01T16:41:23.688Z,99981.63
2022-08-01T16:43:53.507Z,99984.94
2022-08-01T16:46:25.115Z,99988.00
2022-08-01T16:48:54.263Z,99984.94
2022-08-01T16:51:22.895Z,99988.78
2022-08-01T16:53:51.443Z,99981.94
2022-08-01T16:56:21.602Z,99984.72
2022-08-01T16:58:50.160Z,99988.28
2022-08-01T17:01:58.685Z,99987.53
2022-08-01T17:04:08.141Z,99983.97
2022-08-01T17:06:36.631Z,99988.09
2022-08-01T17:09:06.018Z,99997.47
2022-08-01T17:11:36.273Z,99992.78
2022-08-01T17:14:05.772Z,99993.34
2022-08-01T17:16:34.302Z,99992.81
2022-08-01T17:19:03.880Z,99989.28
2022-08-01T17:21:32.376Z,99997.00
2022-08-01T17:24:01.044Z,99991.78
2022-08-01T17:26:29.489Z,99999.00
2022-08-01T17:28:59.665Z,99998.75
2022-08-01T17:31:28.122Z,99998.47
2022-08-01T17:33:56.601Z,99994.06
2022-08-01T17:36:25.228Z,99995.75
2022-08-01T17:38:53.663Z,100003.50
2022-08-01T17:41:22.192Z,100009.81
2022-08-01T17:43:50.706Z,100012.31
2022-08-01T17:46:20.543Z,100011.78
2022-08-01T17:48:48.992Z,100018.97
2022-08-01T17:51:22.491Z,100012.59
2022-08-01T17:53:56.945Z,100008.50
2022-08-01T17:56:26.876Z,100010.66
2022-08-01T17:58:55.747Z,100007.69
2022-08-01T18:01:26.502Z,100014.59
2022-08-01T18:03:57.691Z,100008.53
2022-08-01T18:06:27.377Z,100020.16
2022-08-01T18:08:59.580Z,100015.50
2022-08-01T18:11:37.180Z,100021.25
2022-08-01T18:14:07.046Z,100018.53
2022-08-01T18:16:36.964Z,100027.41
2022-08-01T18:19:07.050Z,100023.81
2022-08-01T18:21:38.645Z,100020.25
2022-08-01T18:24:11.035Z,100023.00
2022-08-01T18:26:39.545Z,100026.59
2022-08-01T18:29:08.121Z,100029.09
2022-08-01T18:31:37.967Z,100036.50
2022-08-01T18:34:06.646Z,100029.34
2022-08-01T18:36:35.235Z,100031.84
2022-08-01T18:39:10.907Z,100024.41
2022-08-01T18:41:40.245Z,100032.94
2022-08-01T18:44:09.596Z,100035.94
2022-08-01T18:46:40.713Z,100034.91
2022-08-01T18:49:11.800Z,100032.41
2022-08-01T18:51:44.559Z,100029.38
2022-08-01T18:54:13.982Z,100030.47
2022-08-01T18:56:43.366Z,100023.31
2022-08-01T18:59:12.301Z,100025.00
2022-08-01T19:01:42.622Z,100026.63
2022-08-01T19:04:13.353Z,100021.13
2022-08-01T19:06:42.140Z,100025.00
2022-08-01T19:09:10.807Z,100033.00
2022-08-01T19:11:39.564Z,100030.78
2022-08-01T19:14:08.287Z,100030.53
2022-08-01T19:16:36.862Z,100031.34
2022-08-01T19:19:09.745Z,100031.63
2022-08-01T19:21:44.657Z,100030.53
2022-08-01T19:24:23.377Z,100031.63
2022-08-01T19:26:54.642Z,100037.41
2022-08-01T19:29:35.260Z,100035.75
2022-08-01T19:32:07.186Z,100032.16
2022-08-01T19:34:44.202Z,100037.66
2022-08-01T19:37:13.461Z,100033.84
2022-08-01T19:39:45.841Z,100046.75
2022-08-01T19:42:14.793Z,100044.84
2022-08-01T19:44:45.548Z,100044.56
2022-08-01T19:47:15.270Z,100047.56
2022-08-01T19:49:45.425Z,100038.25
2022-08-01T19:52:16.357Z,100041.00
2022-08-01T19:54:46.309Z,100050.88
2022-08-01T19:57:16.856Z,100037.41
2022-08-01T19:59:47.682Z,100035.97
2022-08-01T20:02:19.331Z,100035.69
2022-08-01T20:04:49.936Z,100037.09
2022-08-01T20:07:18.835Z,100036.00
2022-08-01T20:09:54.275Z,100038.47
2022-08-01T20:12:23.882Z,100033.75
2022-08-01T20:14:53.887Z,100034.59
2022-08-01T20:17:23.112Z,100034.88
2022-08-01T20:19:53.404Z,100037.91
2022-08-01T20:22:29.439Z,100038.97
2022-08-01T20:25:00.411Z,100040.09
2022-08-01T20:27:32.041Z,100045.88
2022-08-01T20:30:01.699Z,100045.88
2022-08-01T20:32:34.211Z,100053.25
2022-08-01T20:35:06.590Z,100051.09
2022-08-01T20:38:05.871Z,100056.31
2022-08-01T20:40:28.559Z,100060.13
2022-08-01T20:42:58.108Z,100048.59
2022-08-01T20:45:27.992Z,100060.38
2022-08-01T20:47:59.539Z,100062.00
2022-08-01T20:50:54.090Z,100067.50
2022-08-01T20:53:24.022Z,100068.88
2022-08-01T20:56:00.858Z,100066.94
2022-08-01T20:58:38.354Z,100073.53
2022-08-01T21:01:09.611Z,100058.13
2022-08-01T21:03:43.556Z,100069.94
2022-08-01T21:06:15.317Z,100076.78
2022-08-01T21:08:45.829Z,100066.88
2022-08-01T21:11:20.931Z,100062.22
2022-08-01T21:13:50.515Z,100064.63
2022-08-01T21:16:27.607Z,100061.03
2022-08-01T21:21:56.031Z,100073.13
2022-08-01T21:24:28.983Z,100074.19
2022-08-01T21:26:58.881Z,100062.38
2022-08-01T21:29:27.876Z,100064.88
2022-08-01T21:32:10.423Z,100069.25
2022-08-01T21:34:40.507Z,100065.34
2022-08-01T21:37:11.209Z,100059.59
2022-08-01T21:39:41.520Z,100058.22
2022-08-01T21:42:11.292Z,100055.47
2022-08-01T21:44:46.068Z,100061.78
2022-08-01T21:47:16.842Z,100071.13
2022-08-01T21:49:45.384Z,100054.59
2022-08-01T21:52:21.534Z,100054.34
2022-08-01T21:55:01.971Z,100068.63
2022-08-01T21:57:43.821Z,100060.09
2022-08-01T22:00:25.711Z,100065.03
2022-08-01T22:03:02.146Z,100060.63
2022-08-01T22:05:49.916Z,100066.69
2022-08-01T22:08:28.929Z,100069.97
2022-08-01T22:11:00.665Z,100069.38
2022-08-01T22:13:29.361Z,100066.09
2022-08-01T22:15:58.995Z,100063.59
2022-08-01T22:18:28.880Z,100058.66
2022-08-01T22:20:57.735Z,100059.16
2022-08-01T22:23:28.039Z,100055.59
2022-08-01T22:25:57.368Z,100063.00
2022-08-01T22:28:25.840Z,100064.38
2022-08-01T22:30:54.688Z,100064.91
2022-08-01T22:33:23.105Z,100067.38
2022-08-01T22:35:53.764Z,100070.69
2022-08-01T22:38:23.838Z,100063.88
2022-08-01T22:40:55.465Z,100061.88
2022-08-01T22:43:31.395Z,100062.72
2022-08-01T22:46:17.200Z,100068.22
2022-08-01T22:48:50.924Z,100063.50
2022-08-01T22:51:43.206Z,100056.91
2022-08-01T22:54:15.062Z,100061.28
2022-08-01T22:56:55.923Z,100062.94
2022-08-01T22:59:42.669Z,100058.84
2022-08-01T23:02:17.411Z,100058.00
2022-08-01T23:04:48.164Z,100064.03
2022-08-01T23:07:21.168Z,100048.09
2022-08-01T23:09:53.822Z,100049.69
2022-08-01T23:12:29.000Z,100044.16
2022-08-01T23:15:00.190Z,100042.69
2022-08-01T23:17:31.309Z,100045.38
2022-08-01T23:20:01.626Z,100040.47
2022-08-01T23:22:34.029Z,100038.53
2022-08-01T23:25:07.057Z,100035.16
2022-08-01T23:27:55.877Z,100034.06
2022-08-01T23:30:31.220Z,100037.63
2022-08-01T23:33:00.774Z,100035.38
2022-08-01T23:35:30.165Z,100031.53
2022-08-01T23:38:02.702Z,100034.50
2022-08-01T23:40:32.988Z,100034.78
2022-08-01T23:43:04.278Z,100036.63
2022-08-01T23:46:02.901Z,100035.50
2022-08-01T23:48:22.129Z,100035.47
2022-08-01T23:50:52.434Z,100054.88
2022-08-01T23:53:20.873Z,100052.88
2022-08-01T23:55:49.288Z,100051.50
2022-08-01T23:58:19.784Z,100049.53
